sensor_id;sensor_type;location;lat;lon;timestamp;temperature;humidity
16532;DHT22;8378;57.698;11.958;2022-10-31T00:02:00;22.60;99.90
16532;DHT22;8378;57.698;11.958;2022-10-31T00:04:26;22.60;99.90
16532;DHT22;8378;57.698;11.958;2022-10-31T00:06:51;22.60;99.90
16532;DHT22;8378;57.698;11.958;2022-10-31T00:09:17;22.60;99.90
16532;DHT22;8378;57.698;11.958;2022-10-31T00:11:43;22.60;99.90
16532;DHT22;8378;57.698;11.958;2022-10-31T00:14:08;22.60;99.90
16532;DHT22;8378;57.698;11.958;2022-10-31T00:16:34;22.60;99.90
16532;DHT22;8378;57.698;11.958;2022-10-31T00:19:02;22.60;99.90
16532;DHT22;8378;57.698;11.958;2022-10-31T00:21:29;22.60;99.90
16532;DHT22;8378;57.698;11.958;2022-10-31T00:23:56;22.60;99.90
16532;DHT22;8378;57.698;11.958;2022-10-31T00:26:22;22.60;99.90
16532;DHT22;8378;57.698;11.958;2022-10-31T00:28:47;22.60;99.90
16532;DHT22;8378;57.698;11.958;2022-10-31T00:31:14;22.60;99.90
16532;DHT22;8378;57.698;11.958;2022-10-31T00:33:40;22.60;99.90
16532;DHT22;8378;57.698;11.958;2022-10-31T00:36:09;22.60;99.90
16532;DHT22;8378;57.698;11.958;2022-10-31T00:38:35;22.60;99.90
16532;DHT22;8378;57.698;11.958;2022-10-31T00:41:01;22.60;99.90
16532;DHT22;8378;57.698;11.958;2022-10-31T00:43:27;22.60;99.90
16532;DHT22;8378;57.698;11.958;2022-10-31T00:45:52;22.50;99.90
16532;DHT22;8378;57.698;11.958;2022-10-31T00:48:18;22.50;99.90
16532;DHT22;8378;57.698;11.958;2022-10-31T00:50:43;22.50;99.90
16532;DHT22;8378;57.698;11.958;2022-10-31T00:53:09;22.50;99.90
16532;DHT22;8378;57.698;11.958;2022-10-31T00:55:35;22.50;99.90
16532;DHT22;8378;57.698;11.958;2022-10-31T00:58:00;22.50;99.90
16532;DHT22;8378;57.698;11.958;2022-10-31T01:00:26;22.50;99.90
16532;DHT22;8378;57.698;11.958;2022-10-31T01:02:52;22.50;99.90
16532;DHT22;8378;57.698;11.958;2022-10-31T01:05:17;22.50;99.90
16532;DHT22;8378;57.698;11.958;2022-10-31T01:07:43;22.50;99.90
16532;DHT22;8378;57.698;11.958;2022-10-31T01:10:09;22.50;99.90
16532;DHT22;8378;57.698;11.958;2022-10-31T01:12:39;22.50;99.90
16532;DHT22;8378;57.698;11.958;2022-10-31T01:15:05;22.50;99.90
16532;DHT22;8378;57.698;11.958;2022-10-31T01:17:31;22.50;99.90
16532;DHT22;8378;57.698;11.958;2022-10-31T01:19:57;22.50;99.90
16532;DHT22;8378;57.698;11.958;2022-10-31T01:22:23;22.50;99.90
16532;DHT22;8378;57.698;11.958;2022-10-31T01:24:48;22.50;99.90
16532;DHT22;8378;57.698;11.958;2022-10-31T01:27:14;22.50;99.90
16532;DHT22;8378;57.698;11.958;2022-10-31T01:29:39;22.50;99.90
16532;DHT22;8378;57.698;11.958;2022-10-31T01:32:05;22.50;99.90
16532;DHT22;8378;57.698;11.958;2022-10-31T01:34:31;22.50;99.90
16532;DHT22;8378;57.698;11.958;2022-10-31T01:36:56;22.50;99.90
16532;DHT22;8378;57.698;11.958;2022-10-31T01:39:22;22.50;99.90
16532;DHT22;8378;57.698;11.958;2022-10-31T01:41:50;22.50;99.90
16532;DHT22;8378;57.698;11.958;2022-10-31T01:47:05;22.50;99.90
16532;DHT22;8378;57.698;11.958;2022-10-31T01:49:43;22.50;99.90
16532;DHT22;8378;57.698;11.958;2022-10-31T01:52:33;22.50;99.90
16532;DHT22;8378;57.698;11.958;2022-10-31T01:55:05;22.50;99.90
16532;DHT22;8378;57.698;11.958;2022-10-31T01:57:33;22.50;99.90
16532;DHT22;8378;57.698;11.958;2022-10-31T02:00:04;22.50;99.90
16532;DHT22;8378;57.698;11.958;2022-10-31T02:02:30;22.50;99.90
16532;DHT22;8378;57.698;11.958;2022-10-31T02:04:57;22.50;99.90
16532;DHT22;8378;57.698;11.958;2022-10-31T02:07:43;22.50;99.90
16532;DHT22;8378;57.698;11.958;2022-10-31T02:10:10;22.50;99.90
16532;DHT22;8378;57.698;11.958;2022-10-31T02:12:35;22.50;99.90
16532;DHT22;8378;57.698;11.958;2022-10-31T02:15:05;22.50;99.90
16532;DHT22;8378;57.698;11.958;2022-10-31T02:17:31;22.50;99.90
16532;DHT22;8378;57.698;11.958;2022-10-31T02:20:08;22.50;99.90
16532;DHT22;8378;57.698;11.958;2022-10-31T02:25:33;22.50;99.90
16532;DHT22;8378;57.698;11.958;2022-10-31T02:33:35;22.50;99.90
16532;DHT22;8378;57.698;11.958;2022-10-31T02:36:25;22.50;99.90
16532;DHT22;8378;57.698;11.958;2022-10-31T02:42:34;22.50;99.90
16532;DHT22;8378;57.698;11.958;2022-10-31T02:45:25;22.50;99.90
16532;DHT22;8378;57.698;11.958;2022-10-31T02:47:56;22.50;99.90
16532;DHT22;8378;57.698;11.958;2022-10-31T02:50:28;22.50;99.90
16532;DHT22;8378;57.698;11.958;2022-10-31T02:52:55;22.50;99.90
16532;DHT22;8378;57.698;11.958;2022-10-31T02:57:54;22.50;99.90
16532;DHT22;8378;57.698;11.958;2022-10-31T03:00:21;22.50;99.90
16532;DHT22;8378;57.698;11.958;2022-10-31T03:08:21;22.50;99.90
16532;DHT22;8378;57.698;11.958;2022-10-31T03:10:58;22.50;99.90
16532;DHT22;8378;57.698;11.958;2022-10-31T03:13:46;22.50;99.90
16532;DHT22;8378;57.698;11.958;2022-10-31T03:16:27;22.50;99.90
16532;DHT22;8378;57.698;11.958;2022-10-31T03:19:08;22.50;99.90
16532;DHT22;8378;57.698;11.958;2022-10-31T03:24:05;22.50;99.90
16532;DHT22;8378;57.698;11.958;2022-10-31T03:26:33;22.50;99.90
16532;DHT22;8378;57.698;11.958;2022-10-31T03:29:05;22.50;99.90
16532;DHT22;8378;57.698;11.958;2022-10-31T03:31:51;22.50;99.90
16532;DHT22;8378;57.698;11.958;2022-10-31T03:34:19;22.50;99.90
16532;DHT22;8378;57.698;11.958;2022-10-31T03:36:49;22.50;99.90
16532;DHT22;8378;57.698;11.958;2022-10-31T03:39:18;22.50;99.90
16532;DHT22;8378;57.698;11.958;2022-10-31T03:41:54;22.50;99.90
16532;DHT22;8378;57.698;11.958;2022-10-31T03:44:21;22.50;99.90
16532;DHT22;8378;57.698;11.958;2022-10-31T03:46:48;22.50;99.90
16532;DHT22;8378;57.698;11.958;2022-10-31T03:49:14;22.50;99.90
16532;DHT22;8378;57.698;11.958;2022-10-31T03:59:49;22.50;99.90
16532;DHT22;8378;57.698;11.958;2022-10-31T04:02:20;22.50;99.90
16532;DHT22;8378;57.698;11.958;2022-10-31T04:04:48;22.40;99.90
16532;DHT22;8378;57.698;11.958;2022-10-31T04:07:15;22.50;99.90
16532;DHT22;8378;57.698;11.958;2022-10-31T04:09:43;22.50;99.90
16532;DHT22;8378;57.698;11.958;2022-10-31T04:12:13;22.50;99.90
16532;DHT22;8378;57.698;11.958;2022-10-31T04:14:41;22.50;99.90
16532;DHT22;8378;57.698;11.958;2022-10-31T04:17:12;22.50;99.90
16532;DHT22;8378;57.698;11.958;2022-10-31T04:19:38;22.50;99.90
16532;DHT22;8378;57.698;11.958;2022-10-31T04:22:04;22.50;99.90
16532;DHT22;8378;57.698;11.958;2022-10-31T04:24:30;22.50;99.90
16532;DHT22;8378;57.698;11.958;2022-10-31T04:26:55;22.50;99.90
16532;DHT22;8378;57.698;11.958;2022-10-31T04:29:21;22.50;99.90
16532;DHT22;8378;57.698;11.958;2022-10-31T04:31:47;22.50;99.90
16532;DHT22;8378;57.698;11.958;2022-10-31T04:34:12;22.50;99.90
16532;DHT22;8378;57.698;11.958;2022-10-31T04:36:38;22.50;99.90
16532;DHT22;8378;57.698;11.958;2022-10-31T04:39:03;22.50;99.90
16532;DHT22;8378;57.698;11.958;2022-10-31T04:41:29;22.50;99.90
16532;DHT22;8378;57.698;11.958;2022-10-31T04:43:55;22.50;99.90
16532;DHT22;8378;57.698;11.958;2022-10-31T04:46:20;22.50;99.90
16532;DHT22;8378;57.698;11.958;2022-10-31T04:48:46;22.40;99.90
16532;DHT22;8378;57.698;11.958;2022-10-31T04:51:11;22.40;99.90
16532;DHT22;8378;57.698;11.958;2022-10-31T04:53:37;22.50;99.90
16532;DHT22;8378;57.698;11.958;2022-10-31T04:56:03;22.50;99.90
16532;DHT22;8378;57.698;11.958;2022-10-31T04:58:29;22.50;99.90
16532;DHT22;8378;57.698;11.958;2022-10-31T05:00:55;22.40;99.90
16532;DHT22;8378;57.698;11.958;2022-10-31T05:03:21;22.50;99.90
16532;DHT22;8378;57.698;11.958;2022-10-31T05:05:47;22.50;99.90
16532;DHT22;8378;57.698;11.958;2022-10-31T05:08:12;22.50;99.90
16532;DHT22;8378;57.698;11.958;2022-10-31T05:10:38;22.50;99.90
16532;DHT22;8378;57.698;11.958;2022-10-31T05:13:04;22.50;99.90
16532;DHT22;8378;57.698;11.958;2022-10-31T05:15:30;22.50;99.90
16532;DHT22;8378;57.698;11.958;2022-10-31T05:17:57;22.50;99.90
16532;DHT22;8378;57.698;11.958;2022-10-31T05:20:25;22.40;99.90
16532;DHT22;8378;57.698;11.958;2022-10-31T05:22:53;22.50;99.90
16532;DHT22;8378;57.698;11.958;2022-10-31T05:25:21;22.50;99.90
16532;DHT22;8378;57.698;11.958;2022-10-31T05:27:48;22.50;99.90
16532;DHT22;8378;57.698;11.958;2022-10-31T05:30:16;22.50;99.90
16532;DHT22;8378;57.698;11.958;2022-10-31T05:32:44;22.50;99.90
16532;DHT22;8378;57.698;11.958;2022-10-31T05:35:12;22.40;99.90
16532;DHT22;8378;57.698;11.958;2022-10-31T05:37:39;22.50;99.90
16532;DHT22;8378;57.698;11.958;2022-10-31T05:40:06;22.40;99.90
16532;DHT22;8378;57.698;11.958;2022-10-31T05:42:32;22.40;99.90
16532;DHT22;8378;57.698;11.958;2022-10-31T05:44:58;22.40;99.90
16532;DHT22;8378;57.698;11.958;2022-10-31T05:47:23;22.40;99.90
16532;DHT22;8378;57.698;11.958;2022-10-31T05:49:49;22.40;99.90
16532;DHT22;8378;57.698;11.958;2022-10-31T05:52:15;22.40;99.90
16532;DHT22;8378;57.698;11.958;2022-10-31T05:54:40;22.40;99.90
16532;DHT22;8378;57.698;11.958;2022-10-31T05:57:06;22.50;99.90
16532;DHT22;8378;57.698;11.958;2022-10-31T05:59:32;22.50;99.90
16532;DHT22;8378;57.698;11.958;2022-10-31T06:01:57;22.40;99.90
16532;DHT22;8378;57.698;11.958;2022-10-31T06:04:23;22.40;99.90
16532;DHT22;8378;57.698;11.958;2022-10-31T06:06:48;22.40;99.90
16532;DHT22;8378;57.698;11.958;2022-10-31T06:09:14;22.40;99.90
16532;DHT22;8378;57.698;11.958;2022-10-31T06:11:40;22.40;99.90
16532;DHT22;8378;57.698;11.958;2022-10-31T06:14:06;22.40;99.90
16532;DHT22;8378;57.698;11.958;2022-10-31T06:16:32;22.40;99.90
16532;DHT22;8378;57.698;11.958;2022-10-31T06:18:57;22.40;99.90
16532;DHT22;8378;57.698;11.958;2022-10-31T06:21:23;22.40;99.90
16532;DHT22;8378;57.698;11.958;2022-10-31T06:23:48;22.40;99.90
16532;DHT22;8378;57.698;11.958;2022-10-31T06:26:14;22.40;99.90
16532;DHT22;8378;57.698;11.958;2022-10-31T06:28:40;22.40;99.90
16532;DHT22;8378;57.698;11.958;2022-10-31T06:31:06;22.40;99.90
16532;DHT22;8378;57.698;11.958;2022-10-31T06:33:32;22.40;99.90
16532;DHT22;8378;57.698;11.958;2022-10-31T06:35:57;22.40;99.90
16532;DHT22;8378;57.698;11.958;2022-10-31T06:38:23;22.40;99.90
16532;DHT22;8378;57.698;11.958;2022-10-31T06:40:50;22.40;99.90
16532;DHT22;8378;57.698;11.958;2022-10-31T06:43:15;22.40;99.90
16532;DHT22;8378;57.698;11.958;2022-10-31T06:45:41;22.40;99.90
16532;DHT22;8378;57.698;11.958;2022-10-31T06:48:07;22.40;99.90
16532;DHT22;8378;57.698;11.958;2022-10-31T06:50:33;22.40;99.90
16532;DHT22;8378;57.698;11.958;2022-10-31T06:52:58;22.40;99.90
16532;DHT22;8378;57.698;11.958;2022-10-31T06:55:25;22.40;99.90
16532;DHT22;8378;57.698;11.958;2022-10-31T06:57:55;22.40;99.90
16532;DHT22;8378;57.698;11.958;2022-10-31T07:00:21;22.40;99.90
16532;DHT22;8378;57.698;11.958;2022-10-31T07:05:19;22.40;99.90
16532;DHT22;8378;57.698;11.958;2022-10-31T07:07:45;22.40;99.90
16532;DHT22;8378;57.698;11.958;2022-10-31T07:10:11;22.40;99.90
16532;DHT22;8378;57.698;11.958;2022-10-31T07:12:36;22.50;99.90
16532;DHT22;8378;57.698;11.958;2022-10-31T07:15:02;22.50;99.90
16532;DHT22;8378;57.698;11.958;2022-10-31T07:17:27;22.50;99.90
16532;DHT22;8378;57.698;11.958;2022-10-31T07:19:53;22.50;99.90
16532;DHT22;8378;57.698;11.958;2022-10-31T07:22:18;22.50;99.90
16532;DHT22;8378;57.698;11.958;2022-10-31T07:24:44;22.50;99.90
16532;DHT22;8378;57.698;11.958;2022-10-31T07:27:10;22.50;99.90
16532;DHT22;8378;57.698;11.958;2022-10-31T07:29:35;22.50;99.90
16532;DHT22;8378;57.698;11.958;2022-10-31T07:32:01;22.50;99.90
16532;DHT22;8378;57.698;11.958;2022-10-31T07:34:27;22.50;99.90
16532;DHT22;8378;57.698;11.958;2022-10-31T07:36:52;22.50;99.90
16532;DHT22;8378;57.698;11.958;2022-10-31T07:39:18;22.50;99.90
16532;DHT22;8378;57.698;11.958;2022-10-31T07:41:43;22.50;99.90
16532;DHT22;8378;57.698;11.958;2022-10-31T07:44:09;22.50;99.90
16532;DHT22;8378;57.698;11.958;2022-10-31T07:46:34;22.50;99.90
16532;DHT22;8378;57.698;11.958;2022-10-31T07:49:00;22.50;99.90
16532;DHT22;8378;57.698;11.958;2022-10-31T07:51:26;22.50;99.90
16532;DHT22;8378;57.698;11.958;2022-10-31T07:53:51;22.50;99.90
16532;DHT22;8378;57.698;11.958;2022-10-31T07:56:17;22.50;99.90
16532;DHT22;8378;57.698;11.958;2022-10-31T07:58:43;22.50;99.90
16532;DHT22;8378;57.698;11.958;2022-10-31T08:01:08;22.50;99.90
16532;DHT22;8378;57.698;11.958;2022-10-31T08:03:34;22.50;99.90
16532;DHT22;8378;57.698;11.958;2022-10-31T08:05:59;22.50;99.90
16532;DHT22;8378;57.698;11.958;2022-10-31T08:08:25;22.50;99.90
16532;DHT22;8378;57.698;11.958;2022-10-31T08:10:53;22.50;99.90
16532;DHT22;8378;57.698;11.958;2022-10-31T08:13:19;22.50;99.90
16532;DHT22;8378;57.698;11.958;2022-10-31T08:15:44;22.50;99.90
16532;DHT22;8378;57.698;11.958;2022-10-31T08:18:15;22.50;99.90
16532;DHT22;8378;57.698;11.958;2022-10-31T08:20:42;22.50;99.90
16532;DHT22;8378;57.698;11.958;2022-10-31T08:23:10;22.50;99.90
16532;DHT22;8378;57.698;11.958;2022-10-31T08:25:43;22.50;99.90
16532;DHT22;8378;57.698;11.958;2022-10-31T08:28:10;22.50;99.90
16532;DHT22;8378;57.698;11.958;2022-10-31T08:30:37;22.50;99.90
16532;DHT22;8378;57.698;11.958;2022-10-31T08:33:11;22.50;99.90
16532;DHT22;8378;57.698;11.958;2022-10-31T08:35:37;22.50;99.90
16532;DHT22;8378;57.698;11.958;2022-10-31T08:38:03;22.50;99.90
16532;DHT22;8378;57.698;11.958;2022-10-31T08:40:31;22.50;99.90
16532;DHT22;8378;57.698;11.958;2022-10-31T08:43:01;22.50;99.90
16532;DHT22;8378;57.698;11.958;2022-10-31T08:45:28;22.50;99.90
16532;DHT22;8378;57.698;11.958;2022-10-31T08:48:02;22.50;99.90
16532;DHT22;8378;57.698;11.958;2022-10-31T08:50:29;22.50;99.90
16532;DHT22;8378;57.698;11.958;2022-10-31T08:53:03;22.50;99.90
16532;DHT22;8378;57.698;11.958;2022-10-31T08:55:29;22.50;99.90
16532;DHT22;8378;57.698;11.958;2022-10-31T08:57:56;22.50;99.90
16532;DHT22;8378;57.698;11.958;2022-10-31T09:00:22;22.50;99.90
16532;DHT22;8378;57.698;11.958;2022-10-31T09:02:54;22.50;99.90
16532;DHT22;8378;57.698;11.958;2022-10-31T09:05:19;22.50;99.90
16532;DHT22;8378;57.698;11.958;2022-10-31T09:07:45;22.50;99.90
16532;DHT22;8378;57.698;11.958;2022-10-31T09:10:10;22.60;99.90
16532;DHT22;8378;57.698;11.958;2022-10-31T09:12:36;22.60;99.90
16532;DHT22;8378;57.698;11.958;2022-10-31T09:15:02;22.60;99.90
16532;DHT22;8378;57.698;11.958;2022-10-31T09:17:27;22.60;99.90
16532;DHT22;8378;57.698;11.958;2022-10-31T09:19:54;22.60;99.90
16532;DHT22;8378;57.698;11.958;2022-10-31T09:22:20;22.60;99.90
16532;DHT22;8378;57.698;11.958;2022-10-31T09:24:45;22.60;99.90
16532;DHT22;8378;57.698;11.958;2022-10-31T09:27:11;22.60;99.90
16532;DHT22;8378;57.698;11.958;2022-10-31T09:29:37;22.60;99.90
16532;DHT22;8378;57.698;11.958;2022-10-31T09:32:02;22.60;99.90
16532;DHT22;8378;57.698;11.958;2022-10-31T09:34:28;22.60;99.90
16532;DHT22;8378;57.698;11.958;2022-10-31T09:36:53;22.60;99.90
16532;DHT22;8378;57.698;11.958;2022-10-31T09:39:19;22.60;99.90
16532;DHT22;8378;57.698;11.958;2022-10-31T09:42:06;22.60;99.90
16532;DHT22;8378;57.698;11.958;2022-10-31T09:50:23;22.60;99.90
16532;DHT22;8378;57.698;11.958;2022-10-31T09:53:03;22.60;99.90
16532;DHT22;8378;57.698;11.958;2022-10-31T09:55:40;22.60;99.90
16532;DHT22;8378;57.698;11.958;2022-10-31T09:58:15;22.60;99.90
16532;DHT22;8378;57.698;11.958;2022-10-31T10:00:43;22.60;99.90
16532;DHT22;8378;57.698;11.958;2022-10-31T10:05:46;22.60;99.90
16532;DHT22;8378;57.698;11.958;2022-10-31T10:08:24;22.60;99.90
16532;DHT22;8378;57.698;11.958;2022-10-31T10:16:50;22.60;99.90
16532;DHT22;8378;57.698;11.958;2022-10-31T10:25:16;22.70;99.90
16532;DHT22;8378;57.698;11.958;2022-10-31T10:32:58;22.70;99.90
16532;DHT22;8378;57.698;11.958;2022-10-31T10:35:35;22.70;99.90
16532;DHT22;8378;57.698;11.958;2022-10-31T10:38:26;22.70;99.90
16532;DHT22;8378;57.698;11.958;2022-10-31T10:40:53;22.70;99.90
16532;DHT22;8378;57.698;11.958;2022-10-31T10:49:16;22.80;99.90
16532;DHT22;8378;57.698;11.958;2022-10-31T10:51:58;22.80;99.90
16532;DHT22;8378;57.698;11.958;2022-10-31T10:54:49;22.80;99.90
16532;DHT22;8378;57.698;11.958;2022-10-31T10:59:49;22.80;99.90
16532;DHT22;8378;57.698;11.958;2022-10-31T11:02:24;22.80;99.90
16532;DHT22;8378;57.698;11.958;2022-10-31T11:04:53;22.80;99.90
16532;DHT22;8378;57.698;11.958;2022-10-31T11:07:20;22.80;99.90
16532;DHT22;8378;57.698;11.958;2022-10-31T11:09:46;22.90;99.90
16532;DHT22;8378;57.698;11.958;2022-10-31T11:12:30;22.90;99.90
16532;DHT22;8378;57.698;11.958;2022-10-31T11:14:59;22.90;99.90
16532;DHT22;8378;57.698;11.958;2022-10-31T11:20:33;22.90;99.90
16532;DHT22;8378;57.698;11.958;2022-10-31T11:25:55;22.90;99.90
16532;DHT22;8378;57.698;11.958;2022-10-31T11:28:21;22.90;99.90
16532;DHT22;8378;57.698;11.958;2022-10-31T11:30:53;22.80;99.90
16532;DHT22;8378;57.698;11.958;2022-10-31T11:35:54;22.90;99.90
16532;DHT22;8378;57.698;11.958;2022-10-31T11:38:23;22.90;99.90
16532;DHT22;8378;57.698;11.958;2022-10-31T11:41:16;22.90;99.90
16532;DHT22;8378;57.698;11.958;2022-10-31T11:43:57;22.90;99.90
16532;DHT22;8378;57.698;11.958;2022-10-31T11:48:59;22.90;99.90
16532;DHT22;8378;57.698;11.958;2022-10-31T11:51:29;22.90;99.90
16532;DHT22;8378;57.698;11.958;2022-10-31T11:53:58;22.90;99.90
16532;DHT22;8378;57.698;11.958;2022-10-31T11:56:24;22.90;99.90
16532;DHT22;8378;57.698;11.958;2022-10-31T11:58:57;22.90;99.90
16532;DHT22;8378;57.698;11.958;2022-10-31T12:01:27;22.90;99.90
16532;DHT22;8378;57.698;11.958;2022-10-31T12:04:12;22.90;99.90
16532;DHT22;8378;57.698;11.958;2022-10-31T12:06:43;22.90;99.90
16532;DHT22;8378;57.698;11.958;2022-10-31T12:15:31;22.90;99.90
16532;DHT22;8378;57.698;11.958;2022-10-31T12:18:21;22.90;99.90
16532;DHT22;8378;57.698;11.958;2022-10-31T12:44:44;22.90;99.90
16532;DHT22;8378;57.698;11.958;2022-10-31T12:59:02;22.90;99.90
16532;DHT22;8378;57.698;11.958;2022-10-31T13:04:19;22.90;99.90
16532;DHT22;8378;57.698;11.958;2022-10-31T13:06:54;22.90;99.90
16532;DHT22;8378;57.698;11.958;2022-10-31T13:09:38;22.90;99.90
16532;DHT22;8378;57.698;11.958;2022-10-31T13:12:16;22.90;99.90
16532;DHT22;8378;57.698;11.958;2022-10-31T13:14:51;22.90;99.90
16532;DHT22;8378;57.698;11.958;2022-10-31T13:17:30;22.90;99.90
16532;DHT22;8378;57.698;11.958;2022-10-31T13:20:20;22.90;99.90
16532;DHT22;8378;57.698;11.958;2022-10-31T13:22:53;22.90;99.90
16532;DHT22;8378;57.698;11.958;2022-10-31T13:25:23;22.90;99.90
16532;DHT22;8378;57.698;11.958;2022-10-31T13:28:01;22.90;99.90
16532;DHT22;8378;57.698;11.958;2022-10-31T13:30:34;22.90;99.90
16532;DHT22;8378;57.698;11.958;2022-10-31T13:33:19;22.90;99.90
16532;DHT22;8378;57.698;11.958;2022-10-31T13:44:00;22.90;99.90
16532;DHT22;8378;57.698;11.958;2022-10-31T13:46:36;22.90;99.90
16532;DHT22;8378;57.698;11.958;2022-10-31T13:49:02;22.90;99.90
16532;DHT22;8378;57.698;11.958;2022-10-31T13:51:32;22.90;99.90
16532;DHT22;8378;57.698;11.958;2022-10-31T13:54:00;22.90;99.90
16532;DHT22;8378;57.698;11.958;2022-10-31T13:56:32;22.90;99.90
16532;DHT22;8378;57.698;11.958;2022-10-31T14:01:36;22.90;99.90
16532;DHT22;8378;57.698;11.958;2022-10-31T14:07:07;22.90;99.90
16532;DHT22;8378;57.698;11.958;2022-10-31T14:09:36;22.90;99.90
16532;DHT22;8378;57.698;11.958;2022-10-31T14:12:27;22.90;99.90
16532;DHT22;8378;57.698;11.958;2022-10-31T14:15:30;22.90;99.90
16532;DHT22;8378;57.698;11.958;2022-10-31T14:18:01;22.80;99.90
16532;DHT22;8378;57.698;11.958;2022-10-31T14:20:41;22.90;99.90
16532;DHT22;8378;57.698;11.958;2022-10-31T14:28:55;22.80;99.90
16532;DHT22;8378;57.698;11.958;2022-10-31T14:34:32;22.80;99.90
16532;DHT22;8378;57.698;11.958;2022-10-31T14:48:27;22.80;99.90
16532;DHT22;8378;57.698;11.958;2022-10-31T14:50:59;22.80;99.90
16532;DHT22;8378;57.698;11.958;2022-10-31T14:53:45;22.80;99.90
16532;DHT22;8378;57.698;11.958;2022-10-31T14:56:11;22.80;99.90
16532;DHT22;8378;57.698;11.958;2022-10-31T14:58:40;22.80;99.90
16532;DHT22;8378;57.698;11.958;2022-10-31T15:01:26;22.80;99.90
16532;DHT22;8378;57.698;11.958;2022-10-31T15:03:57;22.80;99.90
16532;DHT22;8378;57.698;11.958;2022-10-31T15:06:24;22.80;99.90
16532;DHT22;8378;57.698;11.958;2022-10-31T15:08:52;22.80;99.90
16532;DHT22;8378;57.698;11.958;2022-10-31T15:11:26;22.80;99.90
16532;DHT22;8378;57.698;11.958;2022-10-31T15:13:58;22.80;99.90
16532;DHT22;8378;57.698;11.958;2022-10-31T15:16:33;22.80;99.90
16532;DHT22;8378;57.698;11.958;2022-10-31T15:19:04;22.80;99.90
16532;DHT22;8378;57.698;11.958;2022-10-31T15:21:31;22.80;99.90
16532;DHT22;8378;57.698;11.958;2022-10-31T15:24:00;22.80;99.90
16532;DHT22;8378;57.698;11.958;2022-10-31T15:26:38;22.70;99.90
16532;DHT22;8378;57.698;11.958;2022-10-31T15:29:15;22.70;99.90
16532;DHT22;8378;57.698;11.958;2022-10-31T15:32:01;22.70;99.90
16532;DHT22;8378;57.698;11.958;2022-10-31T15:34:41;22.70;99.90
16532;DHT22;8378;57.698;11.958;2022-10-31T15:37:17;22.70;99.90
16532;DHT22;8378;57.698;11.958;2022-10-31T15:39:45;22.70;99.90
16532;DHT22;8378;57.698;11.958;2022-10-31T15:42:24;22.70;99.90
16532;DHT22;8378;57.698;11.958;2022-10-31T15:47:30;22.70;99.90
16532;DHT22;8378;57.698;11.958;2022-10-31T15:49:58;22.70;99.90
16532;DHT22;8378;57.698;11.958;2022-10-31T15:52:45;22.70;99.90
16532;DHT22;8378;57.698;11.958;2022-10-31T15:55:34;22.70;99.90
16532;DHT22;8378;57.698;11.958;2022-10-31T15:58:03;22.70;99.90
16532;DHT22;8378;57.698;11.958;2022-10-31T16:00:36;22.70;99.90
16532;DHT22;8378;57.698;11.958;2022-10-31T16:13:41;22.70;99.90
16532;DHT22;8378;57.698;11.958;2022-10-31T16:16:17;22.70;99.90
16532;DHT22;8378;57.698;11.958;2022-10-31T16:18:43;22.70;99.90
16532;DHT22;8378;57.698;11.958;2022-10-31T16:21:10;22.70;99.90
16532;DHT22;8378;57.698;11.958;2022-10-31T16:23:38;22.70;99.90
16532;DHT22;8378;57.698;11.958;2022-10-31T16:26:07;22.70;99.90
16532;DHT22;8378;57.698;11.958;2022-10-31T16:28:33;22.70;99.90
16532;DHT22;8378;57.698;11.958;2022-10-31T16:30:59;22.70;99.90
16532;DHT22;8378;57.698;11.958;2022-10-31T16:33:43;22.80;99.90
16532;DHT22;8378;57.698;11.958;2022-10-31T16:38:56;22.80;99.90
16532;DHT22;8378;57.698;11.958;2022-10-31T16:41:22;22.80;99.90
16532;DHT22;8378;57.698;11.958;2022-10-31T16:43:48;22.80;99.90
16532;DHT22;8378;57.698;11.958;2022-10-31T16:46:17;22.80;99.90
16532;DHT22;8378;57.698;11.958;2022-10-31T16:48:43;22.80;99.90
16532;DHT22;8378;57.698;11.958;2022-10-31T16:51:09;22.80;99.90
16532;DHT22;8378;57.698;11.958;2022-10-31T16:53:34;22.80;99.90
16532;DHT22;8378;57.698;11.958;2022-10-31T16:56:03;22.80;99.90
16532;DHT22;8378;57.698;11.958;2022-10-31T16:58:31;22.80;99.90
16532;DHT22;8378;57.698;11.958;2022-10-31T17:01:03;22.80;99.90
16532;DHT22;8378;57.698;11.958;2022-10-31T17:03:30;22.80;99.90
16532;DHT22;8378;57.698;11.958;2022-10-31T17:05:55;22.80;99.90
16532;DHT22;8378;57.698;11.958;2022-10-31T17:08:22;22.80;99.90
16532;DHT22;8378;57.698;11.958;2022-10-31T17:10:51;22.80;99.90
16532;DHT22;8378;57.698;11.958;2022-10-31T17:13:20;22.90;99.90
16532;DHT22;8378;57.698;11.958;2022-10-31T17:15:50;22.90;99.90
16532;DHT22;8378;57.698;11.958;2022-10-31T17:18:17;22.80;99.90
16532;DHT22;8378;57.698;11.958;2022-10-31T17:20:44;22.90;99.90
16532;DHT22;8378;57.698;11.958;2022-10-31T17:23:11;22.90;99.90
16532;DHT22;8378;57.698;11.958;2022-10-31T17:25:37;22.90;99.90
16532;DHT22;8378;57.698;11.958;2022-10-31T17:28:03;22.90;99.90
16532;DHT22;8378;57.698;11.958;2022-10-31T17:30:30;22.90;99.90
16532;DHT22;8378;57.698;11.958;2022-10-31T17:32:56;23.00;99.90
16532;DHT22;8378;57.698;11.958;2022-10-31T17:35:22;22.90;99.90
16532;DHT22;8378;57.698;11.958;2022-10-31T17:37:48;23.00;99.90
16532;DHT22;8378;57.698;11.958;2022-10-31T17:40:16;23.00;99.90
16532;DHT22;8378;57.698;11.958;2022-10-31T17:42:51;23.00;99.90
16532;DHT22;8378;57.698;11.958;2022-10-31T17:45:17;23.00;99.90
16532;DHT22;8378;57.698;11.958;2022-10-31T17:47:48;23.00;99.90
16532;DHT22;8378;57.698;11.958;2022-10-31T17:50:16;23.00;99.90
16532;DHT22;8378;57.698;11.958;2022-10-31T17:52:42;23.00;99.90
16532;DHT22;8378;57.698;11.958;2022-10-31T17:55:08;23.00;99.90
16532;DHT22;8378;57.698;11.958;2022-10-31T17:57:34;23.00;99.90
16532;DHT22;8378;57.698;11.958;2022-10-31T18:00:01;23.00;99.90
16532;DHT22;8378;57.698;11.958;2022-10-31T18:02:27;23.00;99.90
16532;DHT22;8378;57.698;11.958;2022-10-31T18:04:52;23.00;99.90
16532;DHT22;8378;57.698;11.958;2022-10-31T18:07:18;23.00;99.90
16532;DHT22;8378;57.698;11.958;2022-10-31T18:09:47;23.00;99.90
16532;DHT22;8378;57.698;11.958;2022-10-31T18:12:14;23.00;99.90
16532;DHT22;8378;57.698;11.958;2022-10-31T18:14:41;23.00;99.90
16532;DHT22;8378;57.698;11.958;2022-10-31T18:17:07;23.10;99.90
16532;DHT22;8378;57.698;11.958;2022-10-31T18:19:33;23.10;99.90
16532;DHT22;8378;57.698;11.958;2022-10-31T18:21:59;23.10;99.90
16532;DHT22;8378;57.698;11.958;2022-10-31T18:24:24;23.10;99.90
16532;DHT22;8378;57.698;11.958;2022-10-31T18:26:50;23.00;99.90
16532;DHT22;8378;57.698;11.958;2022-10-31T18:29:16;23.10;99.90
16532;DHT22;8378;57.698;11.958;2022-10-31T18:31:42;23.10;99.90
16532;DHT22;8378;57.698;11.958;2022-10-31T18:34:07;23.10;99.90
16532;DHT22;8378;57.698;11.958;2022-10-31T18:36:33;23.10;99.90
16532;DHT22;8378;57.698;11.958;2022-10-31T18:38:59;23.10;99.90